Terminal Aerodrome Forecast
Issued by NWS

Home | Current Version | Previous Version | Text Only | Print | Product List | Glossary On
Versions: 1 2 3 4 5 6 7 8 9 10 11 12 13 14 15 16 17 18 19 20 21
000
FTUS41 KCLE 301700
TAFFDY
TAF
KFDY 301738Z 3018/3118 27006KT P6SM BKN035
     FM302000 27006KT P6SM VCSH BKN050
     FM302300 27006KT P6SM SCT070
     FM310300 25004KT P6SM SKC
     FM311600 25008KT P6SM SCT040=

USA.gov is the U.S. government's official web portal to all federal, state and local government web resources and services.